Domov               UVHVVR             MKGP            O straneh              
ZDRAVSTVENO VARSTVO RASTLIN
  MREŽA AGROMET. POSTAJ
 ► PROGNOSTIČNA OBVESTILA
AGROMETEOROLOŠKI PODATKI -
ARSO
OBVLADOVANJE TVEGANJ ZARADI
NEUGODNIH VREMENSKIH RAZMER
  ► NARAVNE NESREČE
  ► SUŠA/MOČA
  ► NAMAKANJE
  ► ŽLED (gozdarstvo)
KARTOGRAFSKI PRIKAZI
SPLETNE POVEZAVE
PROJEKTI IN PUBLIKACIJE

AGROMETEOROLOŠKA MREŽA: VREMENSKE POSTAJE IN FENOLOŠKA OPAZOVANJA

Pregled podatkov za lokacijo Bilje FURS, meteorološka postaja 859083

Pregled senzorjev na lokaciji

ID Ime Zadnja
vrednost
Datum
zadnje
spremembe
Tip
senzorja
3958 Temperatura 2 m ( °C) 17,5 °C 19.8.2017 05:00 50YA
3959 Relativna vlaga 2 m (% RH) 90,46 % RH 19.8.2017 05:00 50YA
3963 Omočenost lista (U) 0 U 19.8.2017 05:00 A730WET
3964 Padavine 0.2 mm (mm) 0 mm 19.8.2017 05:00 Rain-O-Matic

Pregled podatkov zadnjih 24 ur

Zap.
št.
Datum in čas Bilje FURS
Omočenost
lista
Padavine
0.2
mm
Relativna
vlaga
2
m
Temperatura
2
m
0 19.8.2017 04:00 0 0 90,46 17,5
1 19.8.2017 03:30 0 0 90,95 17,7
2 19.8.2017 03:00 0 0 90,46 17,9
3 19.8.2017 02:30 0 0 91,34 17,84
4 19.8.2017 02:00 0 0 94,55 17,21
5 19.8.2017 01:30 0 0 94,87 17,09
6 19.8.2017 01:00 0 0 93,44 17,07
7 19.8.2017 00:30 0 0 92,23 17,29
8 19.8.2017 00:00 0 0 90,01 17,91
9 18.8.2017 23:30 0 0 89,83 18,29
10 18.8.2017 23:00 0 0 88,8 18,72
11 18.8.2017 22:30 0 0 86,64 19,43
12 18.8.2017 22:00 0 0 86,54 19,64
13 18.8.2017 21:30 0 0 82,26 20,49
14 18.8.2017 21:00 0 0 77,36 21,6
15 18.8.2017 20:30 0 0 70,4 23,13
16 18.8.2017 20:00 0 0 60,65 24,79
17 18.8.2017 19:30 0 0 56,09 26
18 18.8.2017 19:00 0 0 51,16 28,13
19 18.8.2017 18:30 0 0 51,81 29,85
20 18.8.2017 18:00 0 0 47,49 31,49
21 18.8.2017 17:30 0 0 45 32,64
22 18.8.2017 17:00 0 0 36,64 33,76
23 18.8.2017 16:30 0 0 31,21 34,48
24 18.8.2017 16:00 0 0 33,26 35,06
25 18.8.2017 15:30 0 0 32,41 35,43
26 18.8.2017 15:00 0 0 31,85 35,25
27 18.8.2017 14:30 0 0 32,36 35,2
28 18.8.2017 14:00 0 0 32,27 34,96
29 18.8.2017 13:30 0 0 31,95 34,81
30 18.8.2017 13:00 0 0 33,27 34,7
31 18.8.2017 12:30 0 0 33,55 34,71
32 18.8.2017 12:00 0 0 34,37 33,91
33 18.8.2017 11:30 0 0 34,5 33,36
34 18.8.2017 11:00 0 0 37,23 33,07
35 18.8.2017 10:30 0 0 42,9 32,27
36 18.8.2017 10:00 0 0 44,1 31,75
37 18.8.2017 09:30 0 0 52,02 30,26
38 18.8.2017 09:00 0 0 55,71 28,79
39 18.8.2017 08:30 0 0 57,51 27,14
40 18.8.2017 08:00 0 0 65,29 24,65
41 18.8.2017 07:30 0 0 77,61 21,46
42 18.8.2017 07:00 0 0 86,58 19,5
43 18.8.2017 06:30 0 0 95,13 17,74
44 18.8.2017 06:00 0 0 96,91 17,04
© 2011 Ministrstvo za kmetijstvo, gozdarstvo in prehrano. Vse pravice pridržane.